Time;durP1;ratioP1;P1;durP2;ratioP2;P2;SDS_P1;SDS_P2;PMS_P1;PMS_P2;Temp;Humidity;BMP_temperature;BMP_pressure;BME280_temperature;BME280_humidity;BME280_pressure;Samples;Min_cycle;Max_cycle;Signal;HPM_P1;HPM_P2
2023/09/29 00:01:38;;;;;;;8.45;1.80;;;;;;;25.71;45.69;101548.75;5007427;28;20029;-71
2023/09/29 00:04:05;;;;;;;5.68;1.70;;;;;;;25.67;46.01;101536.50;5026071;28;20083;-71
2023/09/29 00:06:34;;;;;;;10.60;2.13;;;;;;;26.23;44.75;101521.31;5010999;28;20022;-71
2023/09/29 00:09:00;;;;;;;12.50;2.88;;;;;;;25.56;45.73;101516.63;5032514;28;20248;-71
2023/09/29 00:11:26;;;;;;;11.73;2.35;;;;;;;25.68;45.76;101511.47;5014162;28;20137;-71
2023/09/29 00:13:52;;;;;;;7.40;1.90;;;;;;;25.55;45.83;101522.94;5012000;28;20056;-74
2023/09/29 00:16:17;;;;;;;12.98;1.50;;;;;;;25.55;46.18;101533.66;5030998;28;20025;-72
2023/09/29 00:18:42;;;;;;;7.43;2.05;;;;;;;25.63;45.97;101516.25;5030900;28;20075;-71
2023/09/29 00:21:08;;;;;;;9.10;2.67;;;;;;;25.24;46.70;101514.09;5030818;28;20022;-71
2023/09/29 00:23:35;;;;;;;4.85;2.10;;;;;;;24.86;48.23;101517.28;5013571;28;20045;-71
2023/09/29 00:26:00;;;;;;;6.32;1.85;;;;;;;25.37;46.67;101518.72;5031137;28;20026;-71
2023/09/29 00:28:26;;;;;;;8.25;2.38;;;;;;;25.20;46.98;101512.56;5030948;28;20112;-71
2023/09/29 00:30:52;;;;;;;9.02;2.70;;;;;;;24.89;47.55;101522.47;5014125;28;20025;-71
2023/09/29 00:33:18;;;;;;;14.38;2.20;;;;;;;25.41;46.66;101517.59;5029782;28;20021;-71
2023/09/29 00:35:43;;;;;;;10.20;1.83;;;;;;;25.69;46.07;101507.81;5008468;28;20528;-71
2023/09/29 00:38:09;;;;;;;13.65;2.17;;;;;;;25.37;46.53;101514.22;5029336;28;20059;-71
2023/09/29 00:40:35;;;;;;;6.75;1.90;;;;;;;25.61;45.98;101504.75;5030052;28;20029;-71
2023/09/29 00:43:02;;;;;;;8.60;2.10;;;;;;;25.46;46.60;101510.13;5029868;28;20120;-72
2023/09/29 00:45:28;;;;;;;11.93;2.03;;;;;;;25.54;46.15;101499.81;5015745;28;20030;-71
2023/09/29 00:47:57;;;;;;;5.43;1.58;;;;;;;25.88;45.41;101495.00;5010408;28;20099;-71
2023/09/29 00:50:25;;;;;;;10.80;2.08;;;;;;;25.75;45.70;101496.72;5011222;28;20067;-71
2023/09/29 00:52:52;;;;;;;9.82;2.70;;;;;;;25.94;45.65;101490.19;5029170;28;20159;-71
2023/09/29 00:55:22;;;;;;;11.77;2.10;;;;;;;25.20;46.71;101488.50;5025220;28;20034;-71
2023/09/29 00:57:51;;;;;;;12.80;1.98;;;;;;;25.82;45.67;101491.84;5010615;28;20414;-71
2023/09/29 01:00:37;;;;;;;8.10;1.63;;;;;;;25.74;45.90;101495.00;5010604;28;20017;-71
2023/09/29 01:03:09;;;;;;;11.38;1.70;;;;;;;25.86;45.63;101483.50;4995460;28;20040;-72
2023/09/29 01:05:36;;;;;;;9.43;2.60;;;;;;;25.82;45.86;101487.34;5007958;28;20099;-71
2023/09/29 01:08:08;;;;;;;8.20;2.10;;;;;;;26.23;45.01;101483.81;5012593;28;20551;-71
2023/09/29 01:10:38;;;;;;;10.93;2.15;;;;;;;25.63;46.03;101497.50;5012672;28;20032;-71
2023/09/29 01:13:03;;;;;;;8.75;2.47;;;;;;;26.07;45.28;101491.13;5010175;28;20032;-71
2023/09/29 01:15:31;;;;;;;9.98;2.50;;;;;;;26.02;45.36;101482.53;5013476;28;20029;-71
2023/09/29 01:17:57;;;;;;;13.40;2.78;;;;;;;26.12;45.03;101483.66;5012356;28;20076;-71
2023/09/29 01:20:28;;;;;;;7.35;1.60;;;;;;;25.91;45.51;101486.75;5031339;28;20049;-71
2023/09/29 01:22:55;;;;;;;8.25;1.83;;;;;;;26.06;45.44;101474.22;5027484;28;20053;-71
2023/09/29 01:25:21;;;;;;;10.55;1.92;;;;;;;26.06;45.22;101473.34;5028647;28;20508;-71
2023/09/29 01:27:47;;;;;;;4.78;1.70;;;;;;;26.08;45.01;101466.94;5031151;28;20040;-71
2023/09/29 01:30:18;;;;;;;6.38;1.75;;;;;;;25.96;45.64;101453.47;5012661;28;20022;-71
2023/09/29 01:32:46;;;;;;;6.18;1.75;;;;;;;25.78;45.70;101459.06;5023196;28;20121;-71
2023/09/29 01:35:11;;;;;;;3.55;1.63;;;;;;;25.63;46.20;101460.03;5028395;28;20032;-71
2023/09/29 01:37:38;;;;;;;6.10;1.75;;;;;;;25.71;46.04;101463.09;5029719;28;20025;-71
2023/09/29 01:40:08;;;;;;;7.93;2.17;;;;;;;26.20;44.99;101449.19;5029104;28;20021;-71
2023/09/29 01:42:34;;;;;;;10.68;2.17;;;;;;;26.28;44.63;101453.19;5012147;28;20021;-71
2023/09/29 01:45:01;;;;;;;8.48;2.65;;;;;;;25.79;45.69;101452.75;5026737;28;20132;-71
2023/09/29 01:47:27;;;;;;;11.05;2.30;;;;;;;25.66;45.77;101449.97;5012950;28;20482;-71
2023/09/29 01:49:52;;;;;;;8.75;2.05;;;;;;;25.37;46.55;101443.81;5029890;28;20036;-71
2023/09/29 01:52:17;;;;;;;11.90;2.58;;;;;;;25.17;47.31;101459.28;5027691;28;20108;-71
2023/09/29 01:54:43;;;;;;;6.80;2.47;;;;;;;25.79;45.54;101450.06;5011949;28;20036;-71
2023/09/29 01:57:08;;;;;;;22.60;2.88;;;;;;;25.71;46.41;101447.03;5027960;28;20091;-71
2023/09/29 01:59:34;;;;;;;7.32;2.50;;;;;;;25.52;46.32;101442.84;5027912;28;20460;-71
2023/09/29 02:01:59;;;;;;;14.38;3.17;;;;;;;26.08;45.25;101444.66;5028911;28;20056;-71
2023/09/29 02:04:24;;;;;;;5.32;2.25;;;;;;;26.30;44.77;101437.88;5023109;28;20437;-71
2023/09/29 02:06:54;;;;;;;6.35;2.67;;;;;;;25.85;45.38;101438.09;5010190;28;20052;-71
2023/09/29 02:09:20;;;;;;;5.97;1.70;;;;;;;25.89;45.58;101419.03;5017678;28;20034;-71
2023/09/29 02:11:45;;;;;;;7.10;1.77;;;;;;;25.29;46.70;101420.19;5028695;28;20084;-71
2023/09/29 02:14:11;;;;;;;6.38;2.00;;;;;;;26.12;45.13;101419.38;5026420;28;20033;-71
2023/09/29 02:16:37;;;;;;;6.53;2.00;;;;;;;25.22;46.88;101414.38;5000940;28;20055;-71
2023/09/29 02:19:03;;;;;;;6.97;1.70;;;;;;;25.36;46.56;101421.56;4992038;28;20094;-71
2023/09/29 02:21:31;;;;;;;5.32;1.73;;;;;;;24.96;47.05;101426.66;4992185;28;20386;-71
2023/09/29 02:24:00;;;;;;;5.65;1.73;;;;;;;25.62;46.11;101399.44;5000957;28;20049;-71
2023/09/29 02:26:28;;;;;;;9.85;2.00;;;;;;;25.72;45.69;101411.28;5028278;28;20037;-71
2023/09/29 02:28:54;;;;;;;5.47;1.83;;;;;;;25.11;46.92;101405.31;5026800;28;20141;-70
2023/09/29 02:31:20;;;;;;;7.40;2.30;;;;;;;25.77;45.22;101401.09;5029538;28;20025;-71
2023/09/29 02:33:45;;;;;;;15.07;2.30;;;;;;;25.38;46.02;101397.38;5010589;28;20029;-71
2023/09/29 02:36:10;;;;;;;8.57;2.38;;;;;;;26.32;44.20;101388.56;5028908;28;20044;-71
2023/09/29 02:38:36;;;;;;;5.53;1.83;;;;;;;25.89;45.45;101386.91;5030152;28;20059;-70
2023/09/29 02:41:02;;;;;;;9.05;2.22;;;;;;;25.91;45.38;101394.84;5027376;28;20496;-71
2023/09/29 02:43:31;;;;;;;5.03;1.60;;;;;;;25.64;45.43;101392.19;5027678;28;20112;-71
2023/09/29 02:45:57;;;;;;;7.30;1.73;;;;;;;25.79;45.35;101401.00;5007009;28;20083;-71
2023/09/29 02:48:27;;;;;;;7.43;1.88;;;;;;;26.10;45.03;101413.25;5029041;28;20053;-71
2023/09/29 02:50:52;;;;;;;6.70;2.03;;;;;;;25.85;46.79;101405.97;5011465;28;20024;-71
2023/09/29 02:53:18;;;;;;;7.68;1.98;;;;;;;26.02;46.44;101407.56;5028191;28;20417;-70
2023/09/29 02:55:46;;;;;;;7.90;1.90;;;;;;;25.73;47.26;101399.59;5009815;28;20033;-69
2023/09/29 02:58:12;;;;;;;10.98;1.67;;;;;;;25.89;48.00;101386.91;5029211;28;20397;-70
2023/09/29 03:00:41;;;;;;;5.35;2.53;;;;;;;26.17;47.84;101379.75;5029545;28;20041;-70
2023/09/29 03:03:09;;;;;;;8.63;1.65;;;;;;;25.89;48.63;101368.16;5008726;28;20033;-70
2023/09/29 03:05:34;;;;;;;6.55;1.60;;;;;;;25.87;48.35;101367.44;5008411;28;20084;-70
2023/09/29 03:08:00;;;;;;;8.65;2.63;;;;;;;25.33;49.16;101370.06;5027853;28;20493;-70
2023/09/29 03:10:28;;;;;;;9.18;2.22;;;;;;;25.60;49.25;101369.25;5028278;28;20051;-70
2023/09/29 03:12:57;;;;;;;9.35;1.77;;;;;;;26.00;48.14;101361.25;5029237;28;20754;-70
2023/09/29 03:15:23;;;;;;;6.97;1.70;;;;;;;25.63;49.08;101359.19;5016289;28;20064;-70
2023/09/29 03:17:49;;;;;;;6.63;2.53;;;;;;;25.79;48.75;101359.03;4991511;28;20109;-70
2023/09/29 03:20:15;;;;;;;3.95;1.67;;;;;;;26.08;48.04;101358.94;5008009;28;20036;-70
2023/09/29 03:22:43;;;;;;;11.05;1.92;;;;;;;25.49;49.18;101357.41;5009668;28;20053;-70
2023/09/29 03:25:16;;;;;;;6.07;1.77;;;;;;;25.47;49.13;101356.66;5026242;28;20037;-70
2023/09/29 03:27:42;;;;;;;5.95;2.28;;;;;;;25.49;49.35;101356.56;5029354;28;20064;-70
2023/09/29 03:30:09;;;;;;;8.07;2.00;;;;;;;25.50;49.31;101348.44;5028033;28;20033;-70
2023/09/29 03:32:35;;;;;;;4.97;1.73;;;;;;;25.72;49.06;101341.69;5011397;28;20063;-70
2023/09/29 03:35:00;;;;;;;10.75;1.70;;;;;;;25.54;49.67;101333.88;5026935;28;20017;-70
2023/09/29 03:37:28;;;;;;;5.05;1.60;;;;;;;25.21;50.23;101332.41;5010171;28;20037;-70
2023/09/29 03:39:55;;;;;;;7.85;2.08;;;;;;;25.81;49.11;101334.84;5007187;28;20129;-70
2023/09/29 03:42:21;;;;;;;7.10;2.47;;;;;;;25.46;49.30;101330.84;5009530;28;20486;-70
2023/09/29 03:44:47;;;;;;;10.05;2.45;;;;;;;25.66;49.21;101323.34;5021117;28;20052;-70
2023/09/29 03:47:12;;;;;;;8.57;1.60;;;;;;;25.72;49.25;101330.97;5007158;28;20434;-70
2023/09/29 03:49:38;;;;;;;7.05;1.80;;;;;;;25.23;49.64;101314.44;5009527;28;20041;-70
2023/09/29 03:52:06;;;;;;;6.47;1.90;;;;;;;25.69;49.25;101315.09;5007232;28;20038;-70
2023/09/29 03:54:33;;;;;;;6.43;1.80;;;;;;;25.16;50.74;101318.47;5001776;28;20033;-70
2023/09/29 03:56:58;;;;;;;10.50;2.10;;;;;;;25.26;50.35;101309.84;5010273;28;20120;-70
2023/09/29 03:59:24;;;;;;;2.50;1.60;;;;;;;25.26;50.42;101307.19;5011045;28;20553;-70
2023/09/29 04:01:53;;;;;;;4.10;2.15;;;;;;;25.80;49.39;101301.88;5011639;28;20390;-70
2023/09/29 04:04:19;;;;;;;13.85;2.75;;;;;;;25.51;49.99;101302.00;5023302;28;20026;-70
2023/09/29 04:06:44;;;;;;;4.70;1.98;;;;;;;25.43;50.44;101306.09;5009439;28;20143;-70
2023/09/29 04:09:10;;;;;;;7.22;1.55;;;;;;;25.74;49.74;101302.25;5010609;28;20319;-70
2023/09/29 04:11:35;;;;;;;12.15;1.95;;;;;;;25.55;50.40;101302.63;5011512;28;20494;-70
2023/09/29 04:14:00;;;;;;;4.55;1.85;;;;;;;25.78;49.25;101303.78;5009919;28;20029;-70
2023/09/29 04:16:26;;;;;;;7.40;1.80;;;;;;;25.67;50.29;101301.81;5030760;28;20029;-70
2023/09/29 04:18:52;;;;;;;5.80;2.10;;;;;;;26.22;49.13;101297.25;5031795;28;20458;-70
2023/09/29 04:21:17;;;;;;;6.65;2.03;;;;;;;25.94;49.05;101306.28;5013904;28;20063;-70
2023/09/29 04:23:43;;;;;;;5.68;1.63;;;;;;;25.42;50.76;101299.91;5012376;28;20136;-70
2023/09/29 04:26:19;;;;;;;2.85;1.65;;;;;;;25.87;50.16;101297.81;5031465;28;20021;-70
2023/09/29 04:28:49;;;;;;;7.78;1.92;;;;;;;25.53;50.95;101297.38;5031018;28;20037;-70
2023/09/29 04:31:15;;;;;;;3.10;1.88;;;;;;;25.78;50.58;101298.41;5030360;28;20033;-70
2023/09/29 04:33:40;;;;;;;5.97;1.83;;;;;;;25.72;50.49;101314.91;5012146;28;20067;-71
2023/09/29 04:36:07;;;;;;;6.60;1.77;;;;;;;25.75;50.09;101306.66;5011695;28;20041;-70
2023/09/29 04:38:33;;;;;;;7.63;1.85;;;;;;;26.26;49.08;101307.78;5031741;28;20447;-71
2023/09/29 04:40:58;;;;;;;15.13;2.00;;;;;;;25.72;50.47;101314.91;5029802;28;20017;-71
2023/09/29 04:43:24;;;;;;;4.80;1.88;;;;;;;26.20;49.46;101306.34;5030397;28;20078;-71
2023/09/29 04:45:49;;;;;;;3.17;1.90;;;;;;;26.47;49.03;101300.91;5032089;28;20128;-72
2023/09/29 04:48:14;;;;;;;4.10;2.08;;;;;;;26.16;49.32;101292.31;5029250;28;20029;-71
2023/09/29 04:50:40;;;;;;;4.05;1.77;;;;;;;26.05;49.59;101305.59;5014194;28;20059;-72
2023/09/29 04:53:05;;;;;;;3.97;2.13;;;;;;;26.16;49.18;101297.69;5011186;28;20029;-71
2023/09/29 04:55:31;;;;;;;6.55;1.90;;;;;;;26.12;49.13;101296.16;5030243;28;20044;-71
2023/09/29 04:57:56;;;;;;;5.45;1.77;;;;;;;25.86;49.57;101296.09;5013544;28;20347;-71
2023/09/29 05:00:21;;;;;;;7.63;1.50;;;;;;;26.65;48.44;101292.53;5013782;28;20478;-70
2023/09/29 05:02:47;;;;;;;7.38;2.38;;;;;;;26.31;49.22;101295.75;5030448;28;20025;-71
2023/09/29 05:05:13;;;;;;;5.10;1.67;;;;;;;26.74;48.31;101291.91;5004484;28;20034;-71
2023/09/29 05:07:38;;;;;;;4.20;1.75;;;;;;;26.57;48.76;101285.91;5017501;28;20064;-71
2023/09/29 05:10:04;;;;;;;5.97;1.17;;;;;;;26.28;48.91;101284.41;5012263;28;20029;-71
2023/09/29 05:12:30;;;;;;;6.43;1.25;;;;;;;26.39;49.25;101297.88;5013444;28;20025;-71
2023/09/29 05:14:56;;;;;;;2.88;1.65;;;;;;;26.37;49.26;101289.97;5008036;28;20045;-71
2023/09/29 05:17:21;;;;;;;3.42;1.45;;;;;;;26.03;49.50;101284.25;4993396;28;20044;-71
2023/09/29 05:19:47;;;;;;;6.55;1.80;;;;;;;26.13;49.40;101291.66;5027844;28;20436;-71
2023/09/29 05:22:12;;;;;;;6.78;1.55;;;;;;;26.29;49.50;101291.47;5029503;28;20036;-71
2023/09/29 05:24:38;;;;;;;3.78;1.58;;;;;;;25.20;51.98;101287.91;5020137;28;20095;-71
2023/09/29 05:27:03;;;;;;;5.03;1.45;;;;;;;25.97;50.42;101278.44;5030492;28;20497;-71
2023/09/29 05:29:29;;;;;;;2.55;1.48;;;;;;;26.74;48.58;101281.19;5012370;28;20037;-71
2023/09/29 05:31:54;;;;;;;4.80;1.90;;;;;;;26.52;48.83;101282.69;5009245;28;20044;-72
2023/09/29 05:34:19;;;;;;;2.50;1.27;;;;;;;26.66;48.95;101283.53;5015506;28;20041;-71
2023/09/29 05:36:45;;;;;;;5.22;1.35;;;;;;;25.83;50.69;101290.94;5000123;28;20117;-71
2023/09/29 05:39:12;;;;;;;5.35;2.05;;;;;;;25.45;52.09;101297.03;5004295;28;20026;-71
2023/09/29 05:41:37;;;;;;;6.07;1.88;;;;;;;26.18;49.73;101295.75;5010495;28;20462;-71
2023/09/29 05:44:03;;;;;;;6.75;1.70;;;;;;;26.67;49.48;101287.94;5025000;28;20072;-71
2023/09/29 05:46:28;;;;;;;1.52;1.30;;;;;;;26.34;49.52;101297.38;5012598;28;20037;-70
2023/09/29 05:48:54;;;;;;;5.38;1.40;;;;;;;26.25;50.01;101296.19;5028802;28;20425;-70
2023/09/29 05:51:21;;;;;;;8.02;1.50;;;;;;;26.64;49.44;101296.16;5011994;28;20038;-70
2023/09/29 05:53:46;;;;;;;6.55;1.98;;;;;;;27.14;48.43;101289.03;5029339;28;20537;-70
2023/09/29 05:56:13;;;;;;;6.32;1.60;;;;;;;26.67;49.25;101279.88;5012613;28;20129;-70
2023/09/29 05:58:38;;;;;;;2.92;1.50;;;;;;;25.82;51.50;101289.22;5012139;28;20056;-70
2023/09/29 06:01:12;;;;;;;3.03;1.63;;;;;;;26.32;50.80;101293.94;5011570;28;20063;-70
2023/09/29 06:03:38;;;;;;;2.20;1.38;;;;;;;25.95;51.86;101288.41;5010982;28;20033;-70
2023/09/29 06:06:04;;;;;;;11.38;1.48;;;;;;;26.07;51.59;101292.94;5027925;28;20500;-70
2023/09/29 06:08:30;;;;;;;2.25;1.25;;;;;;;25.61;52.51;101302.25;5030441;28;20040;-70
2023/09/29 06:10:56;;;;;;;8.75;1.45;;;;;;;25.86;53.03;101300.59;5026883;28;20025;-70
2023/09/29 06:13:21;;;;;;;2.47;1.25;;;;;;;26.09;52.35;101301.75;5028221;28;20584;-70
2023/09/29 06:15:47;;;;;;;3.72;1.40;;;;;;;25.66;53.87;101299.25;5011490;28;20032;-70
2023/09/29 06:18:12;;;;;;;4.65;1.20;;;;;;;25.80;53.99;101301.88;5028313;28;20389;-71
2023/09/29 06:20:38;;;;;;;4.88;1.80;;;;;;;24.73;56.78;101311.34;5029908;28;20029;-70
2023/09/29 06:23:04;;;;;;;4.80;1.35;;;;;;;25.94;53.66;101308.97;5026388;28;20595;-71
2023/09/29 06:25:30;;;;;;;1.48;1.10;;;;;;;26.22;52.73;101307.97;5024917;28;20057;-71
2023/09/29 06:27:56;;;;;;;3.53;1.75;;;;;;;25.21;54.81;101311.00;5024506;28;20493;-70
2023/09/29 06:30:22;;;;;;;2.88;1.52;;;;;;;25.15;55.73;101311.41;5006011;28;20029;-70
2023/09/29 06:32:47;;;;;;;3.92;1.20;;;;;;;25.70;54.13;101316.81;5028503;28;20040;-70
2023/09/29 06:35:14;;;;;;;3.17;1.73;;;;;;;25.84;53.88;101319.44;5024537;28;20523;-70
2023/09/29 06:37:40;;;;;;;5.47;1.30;;;;;;;26.08;52.96;101326.81;5027733;28;20393;-70
2023/09/29 06:40:06;;;;;;;6.50;1.60;;;;;;;25.57;55.73;101333.69;5025839;28;20025;-70
2023/09/29 06:42:31;;;;;;;7.22;2.03;;;;;;;25.63;55.38;101334.25;5008586;28;20025;-70
2023/09/29 06:44:57;;;;;;;5.13;1.33;;;;;;;25.87;55.71;101329.94;5004187;28;20029;-70
2023/09/29 06:47:22;;;;;;;2.70;1.10;;;;;;;25.55;56.52;101335.63;5025879;28;20034;-70
2023/09/29 06:49:48;;;;;;;3.85;1.50;;;;;;;25.48;57.00;101339.63;5024699;28;20334;-70
2023/09/29 06:52:14;;;;;;;2.10;1.33;;;;;;;24.24;63.04;101337.50;5028213;28;20446;-70
2023/09/29 06:54:39;;;;;;;3.45;1.58;;;;;;;25.04;61.82;101335.28;5026682;28;20030;-70
2023/09/29 06:57:04;;;;;;;2.30;1.50;;;;;;;24.26;66.22;101333.78;5007443;28;20084;-70
2023/09/29 06:59:30;;;;;;;5.88;2.55;;;;;;;24.82;65.72;101328.63;5008524;28;20034;-71
2023/09/29 07:01:55;;;;;;;4.53;1.60;;;;;;;25.19;65.24;101333.47;5008513;28;20037;-69
2023/09/29 07:04:20;;;;;;;5.72;1.65;;;;;;;25.44;62.80;101338.13;5010244;28;20707;-70
2023/09/29 07:06:46;;;;;;;5.70;1.80;;;;;;;24.59;68.12;101331.84;5011009;28;20037;-71
2023/09/29 07:09:12;;;;;;;3.30;1.42;;;;;;;25.04;67.29;101324.59;5027003;28;20112;-70
2023/09/29 07:11:40;;;;;;;2.28;1.60;;;;;;;24.44;72.02;101336.28;5027302;28;20441;-69
2023/09/29 07:14:06;;;;;;;6.40;2.10;;;;;;;24.96;69.33;101334.91;5007249;28;20037;-69
2023/09/29 07:16:32;;;;;;;4.25;1.73;;;;;;;24.97;68.88;101332.16;4991029;28;20573;-69
2023/09/29 07:18:57;;;;;;;3.92;1.63;;;;;;;26.09;63.51;101333.88;5026960;28;20030;-69
2023/09/29 07:21:23;;;;;;;3.08;1.70;;;;;;;25.13;66.41;101334.72;5011710;28;20022;-69
2023/09/29 07:23:48;;;;;;;3.45;1.80;;;;;;;25.12;68.16;101342.84;5005978;28;20092;-69
2023/09/29 07:26:14;;;;;;;8.93;1.75;;;;;;;24.70;69.19;101342.75;5007969;28;20112;-70
2023/09/29 07:28:40;;;;;;;3.95;1.67;;;;;;;25.57;65.93;101341.72;5017969;28;20037;-70
2023/09/29 07:31:05;;;;;;;6.07;2.20;;;;;;;24.88;69.32;101346.97;5029240;28;20080;-70
2023/09/29 07:33:31;;;;;;;5.57;1.98;;;;;;;25.51;67.03;101350.16;5032392;28;20486;-70
2023/09/29 07:35:56;;;;;;;3.53;1.98;;;;;;;25.84;66.77;101354.25;5029520;28;20033;-70
2023/09/29 07:38:21;;;;;;;5.55;1.70;;;;;;;25.86;63.90;101355.00;5029700;28;20026;-70
2023/09/29 07:40:47;;;;;;;3.13;1.90;;;;;;;26.01;63.72;101354.94;5008648;28;20022;-70
2023/09/29 07:43:13;;;;;;;4.82;1.92;;;;;;;26.37;63.07;101348.06;5014334;28;20521;-70
2023/09/29 07:45:39;;;;;;;3.83;1.85;;;;;;;26.83;61.24;101339.53;5031188;28;20072;-69
2023/09/29 07:48:05;;;;;;;5.88;1.67;;;;;;;26.44;61.66;101354.72;5031933;28;20033;-70
2023/09/29 07:50:30;;;;;;;4.70;1.90;;;;;;;26.88;61.36;101347.22;5030737;28;20026;-70
2023/09/29 07:52:56;;;;;;;5.68;1.98;;;;;;;25.78;66.42;101360.00;5030668;28;20492;-70
2023/09/29 07:55:22;;;;;;;5.00;1.50;;;;;;;27.19;60.02;101350.38;5014430;28;20025;-70
2023/09/29 07:57:47;;;;;;;6.93;2.35;;;;;;;27.21;59.88;101345.78;5026084;28;20040;-71
2023/09/29 08:00:15;;;;;;;3.42;2.15;;;;;;;27.13;59.15;101351.69;5020763;28;20025;-70
2023/09/29 08:02:41;;;;;;;8.52;2.00;;;;;;;26.67;61.81;101354.94;5030623;28;20112;-70
2023/09/29 08:05:08;;;;;;;2.63;1.77;;;;;;;27.09;60.52;101352.88;5011986;28;20026;-70
2023/09/29 08:07:34;;;;;;;2.08;1.33;;;;;;;25.87;64.88;101356.72;5030386;28;20044;-70
2023/09/29 08:10:00;;;;;;;3.55;1.60;;;;;;;25.66;66.65;101364.31;5014051;28;20022;-70
2023/09/29 08:12:25;;;;;;;4.50;1.80;;;;;;;25.39;69.50;101367.00;5012040;28;20036;-70
2023/09/29 08:14:51;;;;;;;5.57;2.20;;;;;;;25.64;66.35;101370.78;5031055;28;20030;-70
2023/09/29 08:17:18;;;;;;;1.98;1.30;;;;;;;26.66;60.72;101369.31;5030461;28;20390;-70
2023/09/29 08:19:44;;;;;;;2.55;1.20;;;;;;;25.57;64.01;101376.50;5013668;28;20428;-70
2023/09/29 08:22:10;;;;;;;3.13;1.30;;;;;;;26.82;59.62;101372.66;5013127;28;20488;-70
2023/09/29 08:24:36;;;;;;;2.17;1.35;;;;;;;27.07;58.93;101378.97;5012681;28;20045;-70
2023/09/29 08:27:02;;;;;;;4.18;1.58;;;;;;;26.78;61.29;101384.56;5028333;28;22160;-70
2023/09/29 08:29:28;;;;;;;4.95;1.60;;;;;;;27.38;57.28;101383.00;5013295;28;20045;-70
2023/09/29 08:31:58;;;;;;;4.22;1.20;;;;;;;25.72;63.52;101390.72;5030876;28;20025;-70
2023/09/29 08:34:24;;;;;;;2.08;1.30;;;;;;;26.59;63.24;101391.16;5029251;28;20025;-70
2023/09/29 08:36:49;;;;;;;2.22;1.52;;;;;;;26.03;62.08;101393.22;5013548;28;20041;-70
2023/09/29 08:39:15;;;;;;;2.20;1.33;;;;;;;25.48;66.03;101397.66;5029325;28;20049;-70
2023/09/29 08:41:47;;;;;;;2.15;1.42;;;;;;;26.24;62.67;101394.44;5029498;28;20026;-70
2023/09/29 08:44:16;;;;;;;;;;;;;;;26.99;61.41;101387.56;5026598;28;20121;-70
2023/09/29 08:46:45;;;;;;;2.67;1.08;;;;;;;26.90;60.75;101391.75;5026415;28;20290;-70
2023/09/29 08:49:11;;;;;;;2.63;1.35;;;;;;;25.67;65.33;101408.03;5026033;28;20060;-70
2023/09/29 08:51:37;;;;;;;5.35;2.08;;;;;;;26.82;59.75;101391.44;4994323;28;20390;-70
2023/09/29 08:54:04;;;;;;;4.25;1.33;;;;;;;25.56;65.38;101409.56;5004797;28;20087;-70
2023/09/29 08:56:30;;;;;;;1.98;1.30;;;;;;;26.42;61.67;101410.25;5012948;28;20116;-70
2023/09/29 08:58:57;;;;;;;2.08;1.30;;;;;;;27.59;57.50;101401.22;5029265;28;20083;-71
2023/09/29 09:01:23;;;;;;;9.73;1.52;;;;;;;26.73;61.54;101413.53;5029512;28;20122;-70
2023/09/29 09:03:48;;;;;;;4.18;1.15;;;;;;;26.33;62.68;101416.22;5029676;28;20478;-70
2023/09/29 09:06:22;;;;;;;3.28;1.33;;;;;;;26.58;64.50;101427.00;5018928;28;20072;-70
2023/09/29 09:08:51;;;;;;;2.33;1.20;;;;;;;25.96;64.77;101422.19;5010836;28;20470;-70
2023/09/29 09:11:17;;;;;;;2.78;1.42;;;;;;;25.56;67.06;101425.63;4996352;28;20448;-71
2023/09/29 09:13:52;;;;;;;1.83;1.40;;;;;;;25.68;67.50;101425.81;5026176;28;20072;-70
2023/09/29 09:16:17;;;;;;;2.47;1.20;;;;;;;26.63;63.84;101425.81;5026996;28;20026;-71
2023/09/29 09:18:43;;;;;;;2.75;1.38;;;;;;;24.89;71.65;101428.88;5013487;28;20080;-70
2023/09/29 09:21:08;;;;;;;2.50;1.85;;;;;;;24.99;70.80;101431.84;5009336;28;20018;-70
2023/09/29 09:23:37;;;;;;;3.13;1.70;;;;;;;25.83;68.61;101424.81;5001809;28;20168;-70
2023/09/29 09:26:22;;;;;;;4.22;1.80;;;;;;;25.88;67.91;101428.06;5024894;28;20067;-70
2023/09/29 09:28:48;;;;;;;2.53;1.55;;;;;;;26.00;66.38;101434.41;5027770;28;20136;-70
2023/09/29 09:31:13;;;;;;;3.55;1.40;;;;;;;25.99;65.38;101434.50;5024840;28;20457;-71
2023/09/29 09:33:39;;;;;;;2.20;1.80;;;;;;;25.11;72.13;101438.25;5008583;28;20037;-70
2023/09/29 09:36:06;;;;;;;3.95;1.40;;;;;;;27.26;61.07;101442.91;5016776;28;20034;-71
2023/09/29 09:38:33;;;;;;;3.72;1.50;;;;;;;26.33;67.25;101443.88;5024933;28;20033;-71
2023/09/29 09:41:00;;;;;;;3.70;1.60;;;;;;;24.73;74.91;101454.84;5024564;28;20025;-71
2023/09/29 09:43:28;;;;;;;2.92;1.30;;;;;;;26.46;66.09;101456.44;5008815;28;20029;-71
2023/09/29 09:46:03;;;;;;;3.55;1.50;;;;;;;26.62;64.30;101450.91;5023182;28;20033;-71
2023/09/29 09:48:42;;;;;;;5.93;1.85;;;;;;;25.49;69.90;101459.09;5023482;28;20039;-70
2023/09/29 09:51:08;;;;;;;2.40;1.92;;;;;;;26.04;68.28;101453.84;5014569;28;20044;-70
2023/09/29 09:53:37;;;;;;;4.68;1.80;;;;;;;26.40;64.69;101460.41;4994210;28;20053;-70
2023/09/29 09:56:19;;;;;;;3.92;1.70;;;;;;;24.97;72.52;101456.97;5029303;28;20026;-70
2023/09/29 09:58:47;;;;;;;2.00;1.33;;;;;;;26.49;66.64;101465.13;5015950;28;20489;-70
2023/09/29 10:01:12;;;;;;;3.72;2.08;;;;;;;27.19;64.85;101458.56;5024791;28;20057;-69
2023/09/29 10:03:38;;;;;;;3.00;1.77;;;;;;;26.34;67.40;101476.91;5025422;28;20388;-69
2023/09/29 10:06:05;;;;;;;3.10;1.80;;;;;;;26.33;69.49;101464.47;5022961;28;20086;-70
2023/09/29 10:08:31;;;;;;;2.58;1.75;;;;;;;25.45;72.00;101472.78;5007704;28;20748;-69
2023/09/29 10:11:10;;;;;;;4.55;1.73;;;;;;;26.19;70.26;101484.97;4993679;28;20060;-69
2023/09/29 10:13:36;;;;;;;4.43;2.00;;;;;;;26.28;70.60;101485.31;5028857;28;20044;-69
2023/09/29 10:16:05;;;;;;;5.32;1.92;;;;;;;26.33;71.25;101485.88;5028021;28;20420;-67
2023/09/29 10:18:32;;;;;;;6.03;2.20;;;;;;;25.48;74.64;101489.47;5011032;28;20323;-68
2023/09/29 10:21:06;;;;;;;1.98;1.77;;;;;;;25.45;77.77;101495.03;5027562;28;20021;-68
2023/09/29 10:23:44;;;;;;;3.78;1.63;;;;;;;25.79;75.61;101498.25;5028224;28;20437;-66
2023/09/29 10:26:10;;;;;;;5.65;2.90;;;;;;;25.68;76.89;101500.75;5007589;28;20033;-68
2023/09/29 10:28:39;;;;;;;4.00;2.13;;;;;;;25.91;73.43;101502.81;5011444;28;20033;-68
2023/09/29 10:31:15;;;;;;;5.45;2.03;;;;;;;25.26;80.82;101522.03;5009811;28;20087;-68
2023/09/29 10:33:55;;;;;;;2.35;1.77;;;;;;;25.50;78.20;101524.16;5027704;28;20083;-68
2023/09/29 10:36:25;;;;;;;2.72;1.80;;;;;;;26.17;72.06;101545.84;5025268;28;20030;-68
2023/09/29 10:38:53;;;;;;;4.10;0.70;;;;;;;25.38;73.33;101557.91;5024910;28;20068;-69
2023/09/29 10:41:19;;;;;;;2.00;0.70;;;;;;;26.08;70.27;101552.63;5009375;28;20022;-71
2023/09/29 10:43:48;;;;;;;2.20;0.52;;;;;;;25.71;70.21;101556.78;5010483;28;20029;-68
2023/09/29 10:46:20;;;;;;;0.63;0.40;;;;;;;25.95;71.30;101566.88;5016729;28;20025;-68
2023/09/29 10:48:49;;;;;;;4.00;0.90;;;;;;;26.54;66.79;101569.34;5028148;28;20030;-68
2023/09/29 10:51:24;;;;;;;2.40;0.88;;;;;;;26.30;66.89;101577.19;5011569;28;20022;-68
2023/09/29 10:53:51;;;;;;;1.75;0.60;;;;;;;25.47;72.69;101588.59;5026731;28;20683;-68
2023/09/29 10:56:21;;;;;;;5.85;2.00;;;;;;;25.77;68.99;101585.81;5028370;28;20075;-68
2023/09/29 10:58:52;;;;;;;2.75;0.57;;;;;;;25.25;72.12;101595.19;5009601;28;20021;-68
2023/09/29 11:01:33;;;;;;;3.00;0.90;;;;;;;25.62;70.60;101590.31;5026484;28;20033;-68
2023/09/29 11:04:00;;;;;;;3.15;0.80;;;;;;;24.40;75.93;101597.44;5025422;28;20033;-70
2023/09/29 11:06:26;;;;;;;3.15;0.73;;;;;;;25.47;71.08;101610.88;5014006;28;20693;-68
2023/09/29 11:08:59;;;;;;;2.58;0.65;;;;;;;25.76;68.58;101610.91;5031011;28;20032;-68
2023/09/29 11:11:26;;;;;;;6.32;0.88;;;;;;;25.42;69.15;101618.31;5019331;28;20030;-67
2023/09/29 11:13:54;;;;;;;2.10;0.70;;;;;;;25.13;71.32;101623.56;5031679;28;20037;-70
2023/09/29 11:16:19;;;;;;;0.45;0.40;;;;;;;24.44;73.04;101633.72;5030373;28;20028;-70
2023/09/29 11:18:45;;;;;;;2.17;0.70;;;;;;;24.47;73.60;101646.91;5030841;28;20029;-70
2023/09/29 11:21:11;;;;;;;3.45;0.60;;;;;;;24.63;71.06;101643.38;5030838;28;20463;-70
2023/09/29 11:23:46;;;;;;;5.57;0.82;;;;;;;24.88;68.44;101654.41;5032420;28;20057;-70